sensor_id;sensor_type;location;lat;lon;timestamp;P1;durP1;ratioP1;P2;durP2;ratioP2
40757;SDS011;26462;47.384;19.218;2023-08-30T00:01:14;1.70;;;0.60;;
40757;SDS011;26462;47.384;19.218;2023-08-30T00:03:41;1.85;;;0.57;;
40757;SDS011;26462;47.384;19.218;2023-08-30T00:06:08;4.15;;;0.82;;
40757;SDS011;26462;47.384;19.218;2023-08-30T00:08:35;4.25;;;1.10;;
40757;SDS011;26462;47.384;19.218;2023-08-30T00:11:03;3.40;;;0.60;;
40757;SDS011;26462;47.384;19.218;2023-08-30T00:13:31;4.63;;;1.20;;
40757;SDS011;26462;47.384;19.218;2023-08-30T00:16:00;3.40;;;0.70;;
40757;SDS011;26462;47.384;19.218;2023-08-30T00:18:29;1.77;;;0.80;;
40757;SDS011;26462;47.384;19.218;2023-08-30T00:20:57;5.70;;;1.15;;
40757;SDS011;26462;47.384;19.218;2023-08-30T00:23:25;2.17;;;0.93;;
40757;SDS011;26462;47.384;19.218;2023-08-30T00:25:52;2.50;;;0.70;;
40757;SDS011;26462;47.384;19.218;2023-08-30T00:28:19;3.45;;;0.80;;
40757;SDS011;26462;47.384;19.218;2023-08-30T00:30:46;2.63;;;1.02;;
40757;SDS011;26462;47.384;19.218;2023-08-30T00:33:18;1.75;;;0.95;;
40757;SDS011;26462;47.384;19.218;2023-08-30T00:35:46;2.30;;;0.90;;
40757;SDS011;26462;47.384;19.218;2023-08-30T00:38:13;2.72;;;1.00;;
40757;SDS011;26462;47.384;19.218;2023-08-30T00:40:40;1.10;;;0.75;;
40757;SDS011;26462;47.384;19.218;2023-08-30T00:43:09;1.55;;;0.50;;
40757;SDS011;26462;47.384;19.218;2023-08-30T00:45:37;1.17;;;0.60;;
40757;SDS011;26462;47.384;19.218;2023-08-30T00:48:06;1.77;;;0.80;;
40757;SDS011;26462;47.384;19.218;2023-08-30T00:50:35;1.65;;;0.50;;
40757;SDS011;26462;47.384;19.218;2023-08-30T00:53:03;2.22;;;0.77;;
40757;SDS011;26462;47.384;19.218;2023-08-30T00:55:35;1.17;;;0.65;;
40757;SDS011;26462;47.384;19.218;2023-08-30T00:58:04;2.83;;;0.80;;
40757;SDS011;26462;47.384;19.218;2023-08-30T01:00:32;2.28;;;0.80;;
40757;SDS011;26462;47.384;19.218;2023-08-30T01:03:00;3.40;;;1.25;;
40757;SDS011;26462;47.384;19.218;2023-08-30T01:05:28;2.08;;;0.90;;
40757;SDS011;26462;47.384;19.218;2023-08-30T01:07:55;2.88;;;1.45;;
40757;SDS011;26462;47.384;19.218;2023-08-30T01:10:25;2.72;;;1.50;;
40757;SDS011;26462;47.384;19.218;2023-08-30T01:13:04;5.40;;;1.75;;
40757;SDS011;26462;47.384;19.218;2023-08-30T01:15:35;3.55;;;1.48;;
40757;SDS011;26462;47.384;19.218;2023-08-30T01:18:05;3.58;;;2.00;;
40757;SDS011;26462;47.384;19.218;2023-08-30T01:20:37;6.78;;;2.63;;
40757;SDS011;26462;47.384;19.218;2023-08-30T01:23:18;3.47;;;1.75;;
40757;SDS011;26462;47.384;19.218;2023-08-30T01:26:20;3.38;;;1.90;;
40757;SDS011;26462;47.384;19.218;2023-08-30T01:28:49;2.50;;;1.42;;
40757;SDS011;26462;47.384;19.218;2023-08-30T01:31:18;4.38;;;2.25;;
40757;SDS011;26462;47.384;19.218;2023-08-30T01:33:47;3.85;;;1.85;;
40757;SDS011;26462;47.384;19.218;2023-08-30T01:36:17;4.72;;;2.63;;
40757;SDS011;26462;47.384;19.218;2023-08-30T01:38:44;3.67;;;2.58;;
40757;SDS011;26462;47.384;19.218;2023-08-30T01:41:12;3.92;;;2.67;;
40757;SDS011;26462;47.384;19.218;2023-08-30T01:43:41;5.85;;;3.22;;
40757;SDS011;26462;47.384;19.218;2023-08-30T01:46:09;5.45;;;3.20;;
40757;SDS011;26462;47.384;19.218;2023-08-30T01:48:37;7.75;;;2.92;;
40757;SDS011;26462;47.384;19.218;2023-08-30T01:51:05;7.22;;;3.38;;
40757;SDS011;26462;47.384;19.218;2023-08-30T01:53:34;5.68;;;3.70;;
40757;SDS011;26462;47.384;19.218;2023-08-30T01:56:02;8.60;;;4.57;;
40757;SDS011;26462;47.384;19.218;2023-08-30T01:58:29;8.02;;;4.32;;
40757;SDS011;26462;47.384;19.218;2023-08-30T02:00:57;6.78;;;4.35;;
40757;SDS011;26462;47.384;19.218;2023-08-30T02:03:26;6.28;;;4.07;;
40757;SDS011;26462;47.384;19.218;2023-08-30T02:08:37;6.47;;;3.97;;
40757;SDS011;26462;47.384;19.218;2023-08-30T02:11:11;7.00;;;4.45;;
40757;SDS011;26462;47.384;19.218;2023-08-30T02:13:41;7.30;;;4.38;;
40757;SDS011;26462;47.384;19.218;2023-08-30T02:16:11;10.55;;;4.85;;
40757;SDS011;26462;47.384;19.218;2023-08-30T02:18:41;7.70;;;4.18;;
40757;SDS011;26462;47.384;19.218;2023-08-30T02:21:09;8.88;;;4.22;;
40757;SDS011;26462;47.384;19.218;2023-08-30T02:23:36;8.15;;;4.95;;
40757;SDS011;26462;47.384;19.218;2023-08-30T02:26:03;9.07;;;4.88;;
40757;SDS011;26462;47.384;19.218;2023-08-30T02:28:30;7.57;;;4.63;;
40757;SDS011;26462;47.384;19.218;2023-08-30T02:30:57;8.68;;;4.95;;
40757;SDS011;26462;47.384;19.218;2023-08-30T02:33:25;7.35;;;4.97;;
40757;SDS011;26462;47.384;19.218;2023-08-30T02:35:52;7.82;;;4.85;;
40757;SDS011;26462;47.384;19.218;2023-08-30T02:38:20;9.20;;;5.25;;
40757;SDS011;26462;47.384;19.218;2023-08-30T02:40:47;8.23;;;4.95;;
40757;SDS011;26462;47.384;19.218;2023-08-30T02:43:18;8.32;;;4.93;;
40757;SDS011;26462;47.384;19.218;2023-08-30T02:45:45;6.93;;;4.35;;
40757;SDS011;26462;47.384;19.218;2023-08-30T02:48:12;9.15;;;5.70;;
40757;SDS011;26462;47.384;19.218;2023-08-30T02:50:40;11.23;;;5.07;;
40757;SDS011;26462;47.384;19.218;2023-08-30T02:53:08;9.32;;;5.50;;
40757;SDS011;26462;47.384;19.218;2023-08-30T02:55:35;9.48;;;5.22;;
40757;SDS011;26462;47.384;19.218;2023-08-30T02:58:02;9.80;;;5.00;;
40757;SDS011;26462;47.384;19.218;2023-08-30T03:00:32;8.60;;;5.32;;
40757;SDS011;26462;47.384;19.218;2023-08-30T03:03:01;10.90;;;5.13;;
40757;SDS011;26462;47.384;19.218;2023-08-30T03:05:29;10.45;;;4.55;;
40757;SDS011;26462;47.384;19.218;2023-08-30T03:07:56;8.23;;;4.97;;
40757;SDS011;26462;47.384;19.218;2023-08-30T03:10:23;7.40;;;4.88;;
40757;SDS011;26462;47.384;19.218;2023-08-30T03:12:51;9.48;;;4.30;;
40757;SDS011;26462;47.384;19.218;2023-08-30T03:15:18;6.97;;;4.22;;
40757;SDS011;26462;47.384;19.218;2023-08-30T03:17:45;8.18;;;4.95;;
40757;SDS011;26462;47.384;19.218;2023-08-30T03:20:12;8.40;;;4.65;;
40757;SDS011;26462;47.384;19.218;2023-08-30T03:22:42;10.98;;;4.88;;
40757;SDS011;26462;47.384;19.218;2023-08-30T03:25:09;8.60;;;5.20;;
40757;SDS011;26462;47.384;19.218;2023-08-30T03:27:38;7.97;;;5.10;;
40757;SDS011;26462;47.384;19.218;2023-08-30T03:30:06;8.57;;;5.13;;
40757;SDS011;26462;47.384;19.218;2023-08-30T03:32:34;8.07;;;4.97;;
40757;SDS011;26462;47.384;19.218;2023-08-30T03:35:03;7.95;;;4.75;;
40757;SDS011;26462;47.384;19.218;2023-08-30T03:37:32;8.27;;;4.95;;
40757;SDS011;26462;47.384;19.218;2023-08-30T03:40:00;9.65;;;4.72;;
40757;SDS011;26462;47.384;19.218;2023-08-30T03:42:28;10.80;;;5.95;;
40757;SDS011;26462;47.384;19.218;2023-08-30T03:44:55;10.05;;;5.75;;
40757;SDS011;26462;47.384;19.218;2023-08-30T03:47:22;13.27;;;6.40;;
40757;SDS011;26462;47.384;19.218;2023-08-30T03:49:50;10.70;;;5.25;;
40757;SDS011;26462;47.384;19.218;2023-08-30T03:52:17;10.77;;;5.60;;
40757;SDS011;26462;47.384;19.218;2023-08-30T03:54:44;7.82;;;4.78;;
40757;SDS011;26462;47.384;19.218;2023-08-30T03:57:11;7.65;;;4.60;;
40757;SDS011;26462;47.384;19.218;2023-08-30T03:59:38;8.00;;;5.50;;
40757;SDS011;26462;47.384;19.218;2023-08-30T04:02:05;9.70;;;5.28;;
40757;SDS011;26462;47.384;19.218;2023-08-30T04:04:32;10.13;;;5.75;;
40757;SDS011;26462;47.384;19.218;2023-08-30T04:07:00;10.68;;;5.90;;
40757;SDS011;26462;47.384;19.218;2023-08-30T04:09:27;16.90;;;7.40;;
40757;SDS011;26462;47.384;19.218;2023-08-30T04:11:54;8.50;;;4.88;;
40757;SDS011;26462;47.384;19.218;2023-08-30T04:14:21;10.60;;;6.10;;
40757;SDS011;26462;47.384;19.218;2023-08-30T04:16:50;9.32;;;5.57;;
40757;SDS011;26462;47.384;19.218;2023-08-30T04:19:17;9.25;;;5.63;;
40757;SDS011;26462;47.384;19.218;2023-08-30T04:21:44;10.35;;;5.05;;
40757;SDS011;26462;47.384;19.218;2023-08-30T04:24:11;9.52;;;5.03;;
40757;SDS011;26462;47.384;19.218;2023-08-30T04:26:38;8.98;;;5.03;;
40757;SDS011;26462;47.384;19.218;2023-08-30T04:29:05;11.75;;;6.72;;
40757;SDS011;26462;47.384;19.218;2023-08-30T04:31:33;8.40;;;5.07;;
40757;SDS011;26462;47.384;19.218;2023-08-30T04:34:00;10.98;;;5.55;;
40757;SDS011;26462;47.384;19.218;2023-08-30T04:36:27;9.55;;;5.18;;
40757;SDS011;26462;47.384;19.218;2023-08-30T04:38:55;10.48;;;6.00;;
40757;SDS011;26462;47.384;19.218;2023-08-30T04:41:29;10.75;;;5.18;;
40757;SDS011;26462;47.384;19.218;2023-08-30T04:43:56;12.10;;;5.85;;
40757;SDS011;26462;47.384;19.218;2023-08-30T04:46:24;12.07;;;5.53;;
40757;SDS011;26462;47.384;19.218;2023-08-30T04:48:52;10.40;;;5.43;;
40757;SDS011;26462;47.384;19.218;2023-08-30T04:51:19;9.27;;;4.95;;
40757;SDS011;26462;47.384;19.218;2023-08-30T04:53:47;10.55;;;6.00;;
40757;SDS011;26462;47.384;19.218;2023-08-30T04:56:14;12.10;;;5.85;;
40757;SDS011;26462;47.384;19.218;2023-08-30T04:58:41;11.30;;;6.18;;
40757;SDS011;26462;47.384;19.218;2023-08-30T05:01:10;10.23;;;6.13;;
40757;SDS011;26462;47.384;19.218;2023-08-30T05:03:43;11.38;;;5.85;;
40757;SDS011;26462;47.384;19.218;2023-08-30T05:06:12;13.25;;;6.47;;
40757;SDS011;26462;47.384;19.218;2023-08-30T05:08:44;13.23;;;6.68;;
40757;SDS011;26462;47.384;19.218;2023-08-30T05:11:11;14.75;;;6.90;;
40757;SDS011;26462;47.384;19.218;2023-08-30T05:13:38;13.63;;;6.03;;
40757;SDS011;26462;47.384;19.218;2023-08-30T05:16:05;11.23;;;6.22;;
40757;SDS011;26462;47.384;19.218;2023-08-30T05:18:33;15.85;;;7.20;;
40757;SDS011;26462;47.384;19.218;2023-08-30T05:21:01;11.65;;;6.35;;
40757;SDS011;26462;47.384;19.218;2023-08-30T05:23:31;10.75;;;6.32;;
40757;SDS011;26462;47.384;19.218;2023-08-30T05:25:58;11.65;;;5.82;;
40757;SDS011;26462;47.384;19.218;2023-08-30T05:28:25;11.95;;;6.30;;
40757;SDS011;26462;47.384;19.218;2023-08-30T05:30:53;11.95;;;5.47;;
40757;SDS011;26462;47.384;19.218;2023-08-30T05:33:45;12.30;;;6.22;;
40757;SDS011;26462;47.384;19.218;2023-08-30T05:36:41;11.20;;;5.90;;
40757;SDS011;26462;47.384;19.218;2023-08-30T05:39:35;11.32;;;5.90;;
40757;SDS011;26462;47.384;19.218;2023-08-30T05:42:02;11.65;;;6.20;;
40757;SDS011;26462;47.384;19.218;2023-08-30T05:44:30;11.00;;;5.60;;
40757;SDS011;26462;47.384;19.218;2023-08-30T05:46:57;11.00;;;5.72;;
40757;SDS011;26462;47.384;19.218;2023-08-30T05:49:24;13.02;;;6.10;;
40757;SDS011;26462;47.384;19.218;2023-08-30T05:51:51;10.70;;;6.32;;
40757;SDS011;26462;47.384;19.218;2023-08-30T05:54:19;11.57;;;6.40;;
40757;SDS011;26462;47.384;19.218;2023-08-30T05:56:46;13.05;;;6.22;;
40757;SDS011;26462;47.384;19.218;2023-08-30T05:59:13;12.88;;;6.18;;
40757;SDS011;26462;47.384;19.218;2023-08-30T06:01:40;14.00;;;7.53;;
40757;SDS011;26462;47.384;19.218;2023-08-30T06:04:08;11.93;;;6.15;;
40757;SDS011;26462;47.384;19.218;2023-08-30T06:06:35;12.80;;;7.07;;
40757;SDS011;26462;47.384;19.218;2023-08-30T06:09:02;11.85;;;6.15;;
40757;SDS011;26462;47.384;19.218;2023-08-30T06:11:30;14.32;;;6.60;;
40757;SDS011;26462;47.384;19.218;2023-08-30T06:13:57;14.95;;;7.55;;
40757;SDS011;26462;47.384;19.218;2023-08-30T06:16:25;13.98;;;6.35;;
40757;SDS011;26462;47.384;19.218;2023-08-30T06:18:52;13.82;;;7.13;;
40757;SDS011;26462;47.384;19.218;2023-08-30T06:21:20;12.77;;;6.45;;
40757;SDS011;26462;47.384;19.218;2023-08-30T06:23:47;12.23;;;6.22;;
40757;SDS011;26462;47.384;19.218;2023-08-30T06:26:14;11.43;;;6.72;;
40757;SDS011;26462;47.384;19.218;2023-08-30T06:28:41;12.82;;;6.78;;
40757;SDS011;26462;47.384;19.218;2023-08-30T06:31:24;11.57;;;6.13;;
40757;SDS011;26462;47.384;19.218;2023-08-30T06:33:52;13.70;;;7.13;;
40757;SDS011;26462;47.384;19.218;2023-08-30T06:36:20;13.23;;;6.53;;
40757;SDS011;26462;47.384;19.218;2023-08-30T06:38:49;16.42;;;7.05;;
40757;SDS011;26462;47.384;19.218;2023-08-30T06:41:17;13.45;;;6.05;;
40757;SDS011;26462;47.384;19.218;2023-08-30T06:43:44;12.93;;;6.05;;
40757;SDS011;26462;47.384;19.218;2023-08-30T06:46:11;11.80;;;6.70;;
40757;SDS011;26462;47.384;19.218;2023-08-30T06:48:38;9.77;;;5.63;;
40757;SDS011;26462;47.384;19.218;2023-08-30T06:51:05;11.60;;;6.07;;
40757;SDS011;26462;47.384;19.218;2023-08-30T06:53:33;10.98;;;6.05;;
40757;SDS011;26462;47.384;19.218;2023-08-30T06:56:00;11.00;;;6.13;;
40757;SDS011;26462;47.384;19.218;2023-08-30T06:58:28;12.90;;;5.82;;
40757;SDS011;26462;47.384;19.218;2023-08-30T07:00:56;12.13;;;6.25;;
40757;SDS011;26462;47.384;19.218;2023-08-30T07:03:25;10.57;;;6.32;;
40757;SDS011;26462;47.384;19.218;2023-08-30T07:05:52;10.05;;;5.40;;
40757;SDS011;26462;47.384;19.218;2023-08-30T07:08:19;11.85;;;5.57;;
40757;SDS011;26462;47.384;19.218;2023-08-30T07:10:48;10.70;;;6.53;;
40757;SDS011;26462;47.384;19.218;2023-08-30T07:13:23;9.43;;;5.00;;
40757;SDS011;26462;47.384;19.218;2023-08-30T07:15:50;10.60;;;5.72;;
40757;SDS011;26462;47.384;19.218;2023-08-30T07:18:18;10.65;;;5.93;;
40757;SDS011;26462;47.384;19.218;2023-08-30T07:20:45;8.95;;;4.95;;
40757;SDS011;26462;47.384;19.218;2023-08-30T07:23:12;9.57;;;5.28;;
40757;SDS011;26462;47.384;19.218;2023-08-30T07:25:39;8.18;;;4.43;;
40757;SDS011;26462;47.384;19.218;2023-08-30T07:28:06;8.80;;;4.78;;
40757;SDS011;26462;47.384;19.218;2023-08-30T07:30:35;10.65;;;5.88;;
40757;SDS011;26462;47.384;19.218;2023-08-30T07:33:02;10.95;;;5.55;;
40757;SDS011;26462;47.384;19.218;2023-08-30T07:35:30;9.55;;;5.75;;
40757;SDS011;26462;47.384;19.218;2023-08-30T07:37:59;7.68;;;4.57;;
40757;SDS011;26462;47.384;19.218;2023-08-30T07:40:26;11.82;;;5.57;;
40757;SDS011;26462;47.384;19.218;2023-08-30T07:42:55;9.52;;;5.30;;
40757;SDS011;26462;47.384;19.218;2023-08-30T07:45:25;9.93;;;4.90;;
40757;SDS011;26462;47.384;19.218;2023-08-30T07:47:53;10.50;;;5.18;;
40757;SDS011;26462;47.384;19.218;2023-08-30T07:50:28;9.02;;;5.30;;
40757;SDS011;26462;47.384;19.218;2023-08-30T07:52:56;10.43;;;6.13;;
40757;SDS011;26462;47.384;19.218;2023-08-30T07:55:23;9.23;;;5.18;;
40757;SDS011;26462;47.384;19.218;2023-08-30T07:57:50;8.75;;;5.03;;
40757;SDS011;26462;47.384;19.218;2023-08-30T08:00:18;7.65;;;5.07;;
40757;SDS011;26462;47.384;19.218;2023-08-30T08:02:46;8.15;;;4.97;;
40757;SDS011;26462;47.384;19.218;2023-08-30T08:05:14;14.38;;;6.63;;
40757;SDS011;26462;47.384;19.218;2023-08-30T08:07:42;10.35;;;5.30;;
40757;SDS011;26462;47.384;19.218;2023-08-30T08:10:09;9.68;;;5.80;;
40757;SDS011;26462;47.384;19.218;2023-08-30T08:12:36;10.13;;;6.07;;
40757;SDS011;26462;47.384;19.218;2023-08-30T08:15:04;8.15;;;4.90;;
40757;SDS011;26462;47.384;19.218;2023-08-30T08:17:32;7.90;;;5.28;;
40757;SDS011;26462;47.384;19.218;2023-08-30T08:19:59;7.22;;;4.90;;
40757;SDS011;26462;47.384;19.218;2023-08-30T08:22:26;14.77;;;6.30;;
40757;SDS011;26462;47.384;19.218;2023-08-30T08:24:53;8.10;;;5.18;;
40757;SDS011;26462;47.384;19.218;2023-08-30T08:27:24;7.13;;;4.93;;
40757;SDS011;26462;47.384;19.218;2023-08-30T08:29:52;8.15;;;5.07;;
40757;SDS011;26462;47.384;19.218;2023-08-30T08:32:19;10.07;;;5.22;;
40757;SDS011;26462;47.384;19.218;2023-08-30T08:34:47;6.95;;;4.53;;
40757;SDS011;26462;47.384;19.218;2023-08-30T08:37:14;7.97;;;4.85;;
40757;SDS011;26462;47.384;19.218;2023-08-30T08:39:41;12.40;;;6.10;;
40757;SDS011;26462;47.384;19.218;2023-08-30T08:42:09;8.13;;;4.00;;
40757;SDS011;26462;47.384;19.218;2023-08-30T08:44:36;9.15;;;5.50;;
40757;SDS011;26462;47.384;19.218;2023-08-30T08:47:06;11.05;;;5.60;;
40757;SDS011;26462;47.384;19.218;2023-08-30T08:49:33;8.05;;;4.47;;
40757;SDS011;26462;47.384;19.218;2023-08-30T08:52:01;11.85;;;6.10;;
40757;SDS011;26462;47.384;19.218;2023-08-30T08:54:41;10.75;;;5.65;;
40757;SDS011;26462;47.384;19.218;2023-08-30T08:57:10;8.40;;;5.55;;
40757;SDS011;26462;47.384;19.218;2023-08-30T08:59:37;9.95;;;6.43;;
40757;SDS011;26462;47.384;19.218;2023-08-30T09:02:04;13.73;;;6.60;;
40757;SDS011;26462;47.384;19.218;2023-08-30T09:04:31;10.48;;;5.88;;
40757;SDS011;26462;47.384;19.218;2023-08-30T09:06:59;8.45;;;5.30;;
40757;SDS011;26462;47.384;19.218;2023-08-30T09:09:27;8.85;;;5.45;;
40757;SDS011;26462;47.384;19.218;2023-08-30T09:11:54;10.95;;;5.82;;
40757;SDS011;26462;47.384;19.218;2023-08-30T09:14:21;10.02;;;5.70;;
40757;SDS011;26462;47.384;19.218;2023-08-30T09:16:54;9.80;;;5.70;;
40757;SDS011;26462;47.384;19.218;2023-08-30T09:19:23;10.18;;;5.45;;
40757;SDS011;26462;47.384;19.218;2023-08-30T09:21:51;7.82;;;4.95;;
40757;SDS011;26462;47.384;19.218;2023-08-30T09:24:19;10.55;;;6.00;;
40757;SDS011;26462;47.384;19.218;2023-08-30T09:26:47;9.55;;;5.90;;
40757;SDS011;26462;47.384;19.218;2023-08-30T09:29:17;12.02;;;5.97;;
40757;SDS011;26462;47.384;19.218;2023-08-30T09:31:45;10.68;;;6.55;;
40757;SDS011;26462;47.384;19.218;2023-08-30T09:34:12;8.48;;;5.43;;
40757;SDS011;26462;47.384;19.218;2023-08-30T09:36:41;9.98;;;5.40;;
40757;SDS011;26462;47.384;19.218;2023-08-30T09:39:12;9.45;;;5.68;;
40757;SDS011;26462;47.384;19.218;2023-08-30T09:41:41;10.25;;;5.30;;
40757;SDS011;26462;47.384;19.218;2023-08-30T09:44:10;8.88;;;5.30;;
40757;SDS011;26462;47.384;19.218;2023-08-30T09:46:44;10.38;;;5.53;;
40757;SDS011;26462;47.384;19.218;2023-08-30T09:49:23;8.32;;;5.20;;
40757;SDS011;26462;47.384;19.218;2023-08-30T09:51:52;9.52;;;5.38;;
40757;SDS011;26462;47.384;19.218;2023-08-30T09:54:22;8.93;;;5.38;;
40757;SDS011;26462;47.384;19.218;2023-08-30T09:57:07;8.23;;;5.55;;
40757;SDS011;26462;47.384;19.218;2023-08-30T09:59:34;8.30;;;5.10;;
40757;SDS011;26462;47.384;19.218;2023-08-30T10:02:05;9.43;;;5.57;;
40757;SDS011;26462;47.384;19.218;2023-08-30T10:04:34;8.57;;;5.15;;
40757;SDS011;26462;47.384;19.218;2023-08-30T10:07:06;8.45;;;5.05;;
40757;SDS011;26462;47.384;19.218;2023-08-30T10:09:34;9.75;;;5.45;;
40757;SDS011;26462;47.384;19.218;2023-08-30T10:12:11;8.35;;;5.05;;
40757;SDS011;26462;47.384;19.218;2023-08-30T10:14:38;9.57;;;6.13;;
40757;SDS011;26462;47.384;19.218;2023-08-30T10:17:06;7.68;;;4.85;;
40757;SDS011;26462;47.384;19.218;2023-08-30T10:19:37;9.65;;;5.70;;
40757;SDS011;26462;47.384;19.218;2023-08-30T10:22:06;7.60;;;4.68;;
40757;SDS011;26462;47.384;19.218;2023-08-30T10:24:43;10.50;;;5.22;;
40757;SDS011;26462;47.384;19.218;2023-08-30T10:27:35;7.97;;;5.00;;
40757;SDS011;26462;47.384;19.218;2023-08-30T10:30:05;10.00;;;5.85;;
40757;SDS011;26462;47.384;19.218;2023-08-30T10:32:42;9.25;;;5.70;;
40757;SDS011;26462;47.384;19.218;2023-08-30T10:35:13;9.50;;;5.40;;
40757;SDS011;26462;47.384;19.218;2023-08-30T10:37:54;8.60;;;5.60;;
40757;SDS011;26462;47.384;19.218;2023-08-30T10:40:23;8.77;;;5.72;;
40757;SDS011;26462;47.384;19.218;2023-08-30T10:43:04;8.55;;;5.30;;
40757;SDS011;26462;47.384;19.218;2023-08-30T10:45:31;8.13;;;5.05;;
40757;SDS011;26462;47.384;19.218;2023-08-30T10:48:02;6.68;;;4.68;;
40757;SDS011;26462;47.384;19.218;2023-08-30T10:50:31;6.30;;;4.57;;
40757;SDS011;26462;47.384;19.218;2023-08-30T10:53:00;7.40;;;3.88;;
40757;SDS011;26462;47.384;19.218;2023-08-30T10:55:27;6.68;;;3.97;;
40757;SDS011;26462;47.384;19.218;2023-08-30T10:58:02;6.03;;;3.70;;
40757;SDS011;26462;47.384;19.218;2023-08-30T11:00:31;4.88;;;3.10;;
40757;SDS011;26462;47.384;19.218;2023-08-30T11:02:58;6.65;;;2.60;;
40757;SDS011;26462;47.384;19.218;2023-08-30T11:05:26;9.27;;;3.97;;
40757;SDS011;26462;47.384;19.218;2023-08-30T11:07:54;5.68;;;2.97;;
40757;SDS011;26462;47.384;19.218;2023-08-30T11:10:21;7.93;;;3.50;;
40757;SDS011;26462;47.384;19.218;2023-08-30T11:12:49;5.38;;;2.95;;
40757;SDS011;26462;47.384;19.218;2023-08-30T11:15:17;6.20;;;3.35;;
40757;SDS011;26462;47.384;19.218;2023-08-30T11:17:45;7.78;;;2.97;;
40757;SDS011;26462;47.384;19.218;2023-08-30T11:20:14;4.03;;;2.80;;
40757;SDS011;26462;47.384;19.218;2023-08-30T11:22:47;6.50;;;3.15;;
40757;SDS011;26462;47.384;19.218;2023-08-30T11:25:16;5.65;;;3.20;;
40757;SDS011;26462;47.384;19.218;2023-08-30T11:27:44;6.65;;;4.50;;
40757;SDS011;26462;47.384;19.218;2023-08-30T11:30:12;6.50;;;3.78;;
40757;SDS011;26462;47.384;19.218;2023-08-30T11:32:40;5.70;;;3.30;;
40757;SDS011;26462;47.384;19.218;2023-08-30T11:35:12;7.30;;;3.47;;
40757;SDS011;26462;47.384;19.218;2023-08-30T11:37:40;5.70;;;3.17;;
40757;SDS011;26462;47.384;19.218;2023-08-30T11:40:09;5.78;;;2.95;;
40757;SDS011;26462;47.384;19.218;2023-08-30T11:42:37;9.18;;;4.15;;
40757;SDS011;26462;47.384;19.218;2023-08-30T11:45:06;6.63;;;3.03;;
40757;SDS011;26462;47.384;19.218;2023-08-30T11:47:34;4.53;;;2.53;;
40757;SDS011;26462;47.384;19.218;2023-08-30T11:50:07;4.95;;;2.78;;
40757;SDS011;26462;47.384;19.218;2023-08-30T11:52:35;5.13;;;2.60;;
40757;SDS011;26462;47.384;19.218;2023-08-30T11:55:05;3.97;;;2.47;;
40757;SDS011;26462;47.384;19.218;2023-08-30T11:57:33;5.32;;;3.78;;
40757;SDS011;26462;47.384;19.218;2023-08-30T12:00:09;3.67;;;2.17;;
40757;SDS011;26462;47.384;19.218;2023-08-30T12:02:37;6.65;;;2.72;;
40757;SDS011;26462;47.384;19.218;2023-08-30T12:05:09;4.82;;;2.40;;
40757;SDS011;26462;47.384;19.218;2023-08-30T12:07:38;3.20;;;2.28;;
40757;SDS011;26462;47.384;19.218;2023-08-30T12:10:07;5.88;;;3.47;;
40757;SDS011;26462;47.384;19.218;2023-08-30T12:12:35;4.25;;;2.30;;
40757;SDS011;26462;47.384;19.218;2023-08-30T12:15:10;4.63;;;2.17;;
40757;SDS011;26462;47.384;19.218;2023-08-30T12:17:40;3.53;;;1.83;;
40757;SDS011;26462;47.384;19.218;2023-08-30T12:20:17;3.47;;;2.28;;
40757;SDS011;26462;47.384;19.218;2023-08-30T12:22:44;2.95;;;1.75;;
40757;SDS011;26462;47.384;19.218;2023-08-30T12:25:18;4.05;;;2.10;;
40757;SDS011;26462;47.384;19.218;2023-08-30T12:27:47;4.63;;;2.08;;
40757;SDS011;26462;47.384;19.218;2023-08-30T12:30:14;7.38;;;3.08;;
40757;SDS011;26462;47.384;19.218;2023-08-30T12:32:45;4.10;;;2.58;;
40757;SDS011;26462;47.384;19.218;2023-08-30T12:35:13;3.65;;;1.70;;
40757;SDS011;26462;47.384;19.218;2023-08-30T12:37:41;4.65;;;2.15;;
40757;SDS011;26462;47.384;19.218;2023-08-30T12:40:09;2.92;;;1.58;;
40757;SDS011;26462;47.384;19.218;2023-08-30T12:42:36;3.47;;;1.67;;
40757;SDS011;26462;47.384;19.218;2023-08-30T12:45:04;2.53;;;1.05;;
40757;SDS011;26462;47.384;19.218;2023-08-30T12:47:32;4.47;;;1.25;;
40757;SDS011;26462;47.384;19.218;2023-08-30T12:49:59;3.47;;;1.65;;
40757;SDS011;26462;47.384;19.218;2023-08-30T12:52:26;2.70;;;1.33;;
40757;SDS011;26462;47.384;19.218;2023-08-30T12:54:53;2.95;;;1.55;;
40757;SDS011;26462;47.384;19.218;2023-08-30T12:57:20;2.78;;;1.30;;
40757;SDS011;26462;47.384;19.218;2023-08-30T12:59:47;2.95;;;1.63;;
40757;SDS011;26462;47.384;19.218;2023-08-30T13:02:14;2.42;;;1.13;;
40757;SDS011;26462;47.384;19.218;2023-08-30T13:04:42;4.85;;;1.45;;
40757;SDS011;26462;47.384;19.218;2023-08-30T13:07:09;3.47;;;1.17;;
40757;SDS011;26462;47.384;19.218;2023-08-30T13:09:36;3.95;;;1.15;;
40757;SDS011;26462;47.384;19.218;2023-08-30T13:12:03;5.22;;;2.05;;
40757;SDS011;26462;47.384;19.218;2023-08-30T13:14:31;2.92;;;1.35;;
40757;SDS011;26462;47.384;19.218;2023-08-30T13:16:58;1.90;;;1.10;;
40757;SDS011;26462;47.384;19.218;2023-08-30T13:19:25;2.97;;;1.13;;
40757;SDS011;26462;47.384;19.218;2023-08-30T13:21:52;2.80;;;1.20;;
40757;SDS011;26462;47.384;19.218;2023-08-30T13:24:21;2.17;;;1.30;;
40757;SDS011;26462;47.384;19.218;2023-08-30T13:26:48;2.90;;;1.20;;
40757;SDS011;26462;47.384;19.218;2023-08-30T13:29:15;2.63;;;1.10;;
40757;SDS011;26462;47.384;19.218;2023-08-30T13:31:43;2.92;;;1.33;;
40757;SDS011;26462;47.384;19.218;2023-08-30T13:34:10;2.72;;;1.40;;
40757;SDS011;26462;47.384;19.218;2023-08-30T13:36:38;3.30;;;2.20;;
40757;SDS011;26462;47.384;19.218;2023-08-30T13:39:06;2.45;;;1.30;;
40757;SDS011;26462;47.384;19.218;2023-08-30T13:41:33;2.65;;;1.05;;
40757;SDS011;26462;47.384;19.218;2023-08-30T13:44:02;1.92;;;1.20;;
40757;SDS011;26462;47.384;19.218;2023-08-30T13:46:32;3.88;;;1.50;;
40757;SDS011;26462;47.384;19.218;2023-08-30T13:49:00;3.35;;;1.33;;
40757;SDS011;26462;47.384;19.218;2023-08-30T13:51:29;2.90;;;1.73;;
40757;SDS011;26462;47.384;19.218;2023-08-30T13:53:57;1.92;;;1.40;;
40757;SDS011;26462;47.384;19.218;2023-08-30T13:56:24;2.85;;;1.42;;
40757;SDS011;26462;47.384;19.218;2023-08-30T13:58:55;4.38;;;1.30;;
40757;SDS011;26462;47.384;19.218;2023-08-30T14:01:23;3.65;;;1.77;;
40757;SDS011;26462;47.384;19.218;2023-08-30T14:03:50;3.13;;;1.73;;
40757;SDS011;26462;47.384;19.218;2023-08-30T14:06:17;3.78;;;1.60;;
40757;SDS011;26462;47.384;19.218;2023-08-30T14:08:45;3.03;;;1.58;;
40757;SDS011;26462;47.384;19.218;2023-08-30T14:11:12;3.42;;;1.17;;
40757;SDS011;26462;47.384;19.218;2023-08-30T14:13:41;1.80;;;1.05;;
40757;SDS011;26462;47.384;19.218;2023-08-30T14:16:08;1.75;;;1.13;;
40757;SDS011;26462;47.384;19.218;2023-08-30T14:18:37;2.60;;;0.85;;
40757;SDS011;26462;47.384;19.218;2023-08-30T14:21:04;2.85;;;0.90;;
40757;SDS011;26462;47.384;19.218;2023-08-30T14:23:33;1.95;;;0.98;;
40757;SDS011;26462;47.384;19.218;2023-08-30T14:26:02;1.45;;;0.80;;
40757;SDS011;26462;47.384;19.218;2023-08-30T14:28:41;2.03;;;0.80;;
40757;SDS011;26462;47.384;19.218;2023-08-30T14:31:09;2.63;;;1.00;;
40757;SDS011;26462;47.384;19.218;2023-08-30T14:33:37;3.72;;;1.10;;
40757;SDS011;26462;47.384;19.218;2023-08-30T14:36:09;2.35;;;1.23;;
40757;SDS011;26462;47.384;19.218;2023-08-30T14:38:37;2.17;;;1.08;;
40757;SDS011;26462;47.384;19.218;2023-08-30T14:41:05;1.77;;;1.00;;
40757;SDS011;26462;47.384;19.218;2023-08-30T14:43:32;2.95;;;1.38;;